City Ranch, California
Current Conditions -  °F | °C
As of 9:53 AM on Tuesday 21 Oct 2014 (Local Time) from KPMD Reporting Station
Clear Clear  
Wind Chill: 64°   Ceiling: Unl
Heat Index: 64°   Visibility: 10mi
Dew Point: 43°   Wind: 15mph
Humidity: 46%   Direction: 300°WNW
Pressure: 30"   Gusts: NA
Location:  34.5959°N, 118.235°W
Report Text: KPMD 211653Z 30013KT 10SM CLR 18/06 A3000 RMK AO2 SLP140 T01780061
Loading
Personal Weather Stations






























Interactive Weather Map
Tropical Storm Tracking
New forecast layout! Learn more

10-Day Weather Forecast

Advertisements
Track Severe Weather on mobile